Time;durP1;ratioP1;P1;durP2;ratioP2;P2;SDS_P1;SDS_P2;PMS_P1;PMS_P2;Temp;Humidity;BMP_temperature;BMP_pressure;BME280_temperature;BME280_humidity;BME280_pressure;Samples;Min_cycle;Max_cycle;Signal;HPM_P1;HPM_P2
2022/01/14 00:00:34;;;;;;;44.33;19.67;;;3.80;99.90;;;1.64;100.00;102648.22;6241586;23;20091;-86
2022/01/14 00:03:01;;;;;;;41.85;20.17;;;3.80;99.90;;;1.63;100.00;102643.81;6240526;23;20032;-86
2022/01/14 00:05:28;;;;;;;43.28;20.88;;;3.80;99.90;;;1.67;100.00;102629.28;6241710;23;20054;-86
2022/01/14 00:07:57;;;;;;;44.97;20.73;;;3.80;99.90;;;1.68;100.00;102631.06;6241494;23;20024;-86
2022/01/14 00:10:29;;;;;;;42.13;20.33;;;3.80;99.90;;;1.58;100.00;102629.75;6241539;23;20066;-86
2022/01/14 00:13:05;;;;;;;48.35;21.58;;;3.80;99.90;;;1.61;100.00;102635.81;6240824;23;20336;-86
2022/01/14 00:15:35;;;;;;;40.90;19.77;;;3.80;99.90;;;1.53;100.00;102638.88;6241769;23;20119;-86
2022/01/14 00:18:03;;;;;;;44.75;20.70;;;3.80;99.90;;;1.48;100.00;102635.53;6241417;23;20537;-86
2022/01/14 00:20:30;;;;;;;43.40;20.45;;;3.80;99.90;;;1.45;100.00;102627.66;6241386;23;20032;-86
2022/01/14 00:22:59;;;;;;;50.58;21.33;;;3.80;99.90;;;1.45;100.00;102630.34;6240585;23;20111;-87
2022/01/14 00:33:47;;;;;;;;;;;3.80;99.90;;;1.55;100.00;102631.63;6218276;23;20116;-86
2022/01/14 00:36:14;;;;;;;48.88;21.45;;;3.80;99.90;;;1.61;100.00;102635.81;6240851;23;19943;-86
2022/01/14 00:38:41;;;;;;;44.20;22.50;;;3.80;99.90;;;1.51;100.00;102630.03;6214386;23;20107;-86
2022/01/14 00:41:10;;;;;;;45.08;21.83;;;3.80;99.90;;;1.53;100.00;102630.84;6213565;23;20066;-86
2022/01/14 00:43:39;;;;;;;49.13;22.33;;;3.70;99.90;;;1.53;100.00;102632.66;6241285;23;20070;-86
2022/01/14 00:46:09;;;;;;;46.28;21.80;;;3.70;99.90;;;1.60;100.00;102625.16;6241341;23;20024;-86
2022/01/14 00:48:38;;;;;;;51.60;22.83;;;3.80;99.90;;;1.59;100.00;102626.13;6241280;23;20050;-87
2022/01/14 00:51:06;;;;;;;47.88;21.95;;;3.80;99.90;;;1.48;100.00;102614.06;6240444;23;20366;-86
2022/01/14 00:53:33;;;;;;;46.72;22.35;;;3.80;99.90;;;1.54;100.00;102607.53;6241197;23;20048;-86
2022/01/14 00:56:07;;;;;;;43.97;22.42;;;3.80;99.90;;;1.54;100.00;102621.84;6241346;23;20024;-86
2022/01/14 01:01:23;;;;;;;48.38;21.48;;;3.80;99.90;;;1.73;100.00;102618.25;6212814;23;20048;-86
2022/01/14 01:03:50;;;;;;;55.17;22.83;;;3.70;99.90;;;1.61;100.00;102624.22;6241283;23;20024;-86
2022/01/14 01:06:18;;;;;;;50.05;22.42;;;3.80;99.90;;;1.64;100.00;102626.75;6241819;23;20048;-86
2022/01/14 01:08:47;;;;;;;47.05;21.85;;;3.70;99.90;;;1.47;100.00;102620.41;6241246;23;20043;-87
2022/01/14 01:11:14;;;;;;;43.58;21.70;;;3.70;99.90;;;1.48;100.00;102614.06;6240173;23;20055;-86
2022/01/14 01:13:43;;;;;;;45.08;21.08;;;3.70;99.90;;;1.51;100.00;102616.63;6241674;23;20447;-86
2022/01/14 01:16:10;;;;;;;46.25;22.10;;;3.70;99.90;;;1.50;100.00;102620.22;6241171;23;20024;-87
2022/01/14 01:18:39;;;;;;;52.00;22.52;;;3.70;99.90;;;1.45;100.00;102613.38;6241278;23;20024;-86
2022/01/14 01:21:06;;;;;;;52.45;22.67;;;3.70;99.90;;;1.50;100.00;102620.22;6240102;23;20537;-87
2022/01/14 01:23:33;;;;;;;48.30;22.38;;;3.70;99.90;;;1.42;100.00;102625.09;6241378;23;20046;-87
2022/01/14 01:26:13;;;;;;;50.65;22.88;;;3.70;99.90;;;1.41;100.00;102615.34;6214274;23;20031;-87
2022/01/14 01:28:54;;;;;;;43.60;22.10;;;3.70;99.90;;;1.47;100.00;102623.09;6241445;23;20020;-87
2022/01/14 01:32:15;;;;;;;49.42;21.77;;;3.70;99.90;;;1.51;100.00;102613.94;6239574;23;20023;-86
2022/01/14 01:34:44;;;;;;;47.17;21.70;;;3.70;99.90;;;1.56;100.00;102611.91;6220990;23;20036;-87
2022/01/14 01:37:12;;;;;;;50.90;23.00;;;3.70;99.90;;;1.49;100.00;102609.59;6240834;23;20718;-87
2022/01/14 01:39:39;;;;;;;50.97;23.20;;;3.70;99.90;;;1.48;100.00;102606.03;6214139;23;20473;-87
2022/01/14 01:42:09;;;;;;;51.65;22.85;;;3.70;99.90;;;1.45;100.00;102603.50;6240114;23;20012;-87
2022/01/14 01:44:40;;;;;;;54.05;23.02;;;3.70;99.90;;;1.51;100.00;102607.72;6240837;23;20020;-86
2022/01/14 01:47:08;;;;;;;54.97;24.70;;;3.80;99.90;;;1.44;100.00;102607.13;6241254;23;20454;-87
2022/01/14 01:49:39;;;;;;;52.80;22.88;;;3.70;99.90;;;1.39;100.00;102608.28;6240712;23;20398;-86
2022/01/14 01:55:45;;;;;;;53.05;24.02;;;3.70;99.90;;;1.36;100.00;102610.16;6102865;23;20052;-87
2022/01/14 01:58:13;;;;;;;54.60;24.35;;;3.70;99.90;;;1.44;100.00;102617.84;6241973;23;20037;-88
2022/01/14 02:04:58;;;;;;;50.67;22.48;;;3.70;99.90;;;1.50;100.00;102628.28;6206053;23;20074;-87
2022/01/14 02:07:25;;;;;;;55.97;22.35;;;3.70;99.90;;;1.51;100.00;102629.19;6242817;23;20020;-86
2022/01/14 02:09:54;;;;;;;57.40;23.83;;;3.70;99.90;;;1.51;100.00;102621.13;6242597;23;20104;-86
2022/01/14 02:12:21;;;;;;;52.03;23.73;;;3.70;99.90;;;1.46;100.00;102621.34;6240495;23;20047;-86
2022/01/14 02:23:32;;;;;;;50.42;21.10;;;3.60;99.90;;;1.53;100.00;102619.25;6126732;23;20034;-87
2022/01/14 02:27:46;;;;;;;49.10;23.13;;;3.60;99.90;;;1.41;100.00;102619.81;6240524;23;20078;-86
2022/01/14 02:36:15;;;;;;;49.97;22.67;;;3.50;99.90;;;1.23;100.00;102614.38;6111091;23;20022;-87
2022/01/14 02:42:10;;;;;;;42.92;21.33;;;3.40;99.90;;;1.12;100.00;102605.97;5982808;23;20729;-84
2022/01/14 02:44:38;;;;;;;49.78;23.65;;;3.40;99.90;;;1.12;100.00;102600.59;6002278;23;20085;-86
2022/01/14 02:47:06;;;;;;;43.70;20.52;;;3.40;99.90;;;1.13;100.00;102603.22;6002447;23;20448;-87
2022/01/14 02:49:36;;;;;;;48.25;22.88;;;3.40;99.90;;;1.13;100.00;102595.16;6002314;23;20173;-86
2022/01/14 02:52:10;;;;;;;47.42;21.08;;;3.40;99.90;;;1.13;100.00;102592.50;6001769;23;20027;-86
2022/01/14 03:01:43;;;;;;;49.72;21.95;;;3.40;99.90;;;1.07;100.00;102582.06;5941329;23;20005;-81
2022/01/14 03:12:15;;;;;;;48.30;20.33;;;3.30;99.90;;;1.00;100.00;102585.97;5893583;24;20107;-83
2022/01/14 03:16:41;;;;;;;;;;;;;;;;;;;;;
2022/01/14 03:20:00;;;;;;;44.00;20.33;;;3.20;99.90;;;0.81;100.00;102579.72;5945189;24;20056;-83
2022/01/14 03:23:06;;;;;;;45.17;20.58;;;3.20;99.90;;;0.75;100.00;102571.00;5947188;24;20028;-83
2022/01/14 04:02:30;;;;;;;;;;;;;;;;;;;;;
2022/01/14 04:17:44;;;;;;;45.13;21.35;;;3.00;99.90;;;0.77;100.00;102531.59;5724244;24;20040;-83
2022/01/14 04:25:03;;;;;;;45.78;21.15;;;3.00;99.90;;;0.71;100.00;102541.75;5705571;24;20034;-83
2022/01/14 05:04:21;;;;;;;48.70;21.15;;;2.80;99.90;;;0.35;100.00;102555.88;6005223;23;20089;-83
2022/01/14 05:07:51;;;;;;;46.92;22.00;;;2.80;99.90;;;0.35;100.00;102556.72;6120637;23;20475;-83
2022/01/14 05:22:17;;;;;;;50.95;23.50;;;2.70;99.90;;;0.29;100.00;102545.44;5992982;23;20032;-83
2022/01/14 05:24:46;;;;;;;49.63;23.55;;;2.70;99.90;;;0.29;100.00;102548.97;6120854;23;20330;-83
2022/01/14 05:27:14;;;;;;;51.75;24.13;;;2.80;99.90;;;0.34;100.00;102548.75;6120919;23;20022;-83
2022/01/14 05:29:41;;;;;;;56.90;25.85;;;2.70;99.90;;;0.38;100.00;102551.25;6120368;23;20057;-83
2022/01/14 05:32:13;;;;;;;67.15;27.35;;;2.70;99.90;;;0.38;100.00;102551.25;6120699;23;20353;-83
2022/01/14 05:34:42;;;;;;;69.43;27.13;;;2.70;99.90;;;0.42;100.00;102537.69;6121141;23;20024;-82
2022/01/14 05:37:10;;;;;;;67.68;27.63;;;2.70;99.90;;;0.50;100.00;102535.56;6120452;23;20076;-83
2022/01/14 05:39:37;;;;;;;76.53;29.52;;;2.70;99.90;;;0.49;100.00;102531.13;6121186;23;20025;-83
2022/01/14 05:42:06;;;;;;;57.92;25.77;;;2.80;99.90;;;0.54;100.00;102526.44;6120029;23;20025;-83
2022/01/14 05:44:34;;;;;;;68.30;27.38;;;2.80;99.90;;;0.55;100.00;102525.50;6121097;23;20053;-83
2022/01/14 05:47:02;;;;;;;65.03;27.00;;;2.80;99.90;;;0.55;100.00;102515.66;6121241;23;20052;-83
2022/01/14 05:49:31;;;;;;;55.95;27.55;;;2.90;99.90;;;0.68;100.00;102518.63;6120498;23;20026;-84
2022/01/14 05:51:58;;;;;;;60.53;27.70;;;2.90;99.90;;;0.65;100.00;102513.44;6119712;23;20022;-83
2022/01/14 05:54:25;;;;;;;63.50;29.20;;;2.90;99.90;;;0.67;100.00;102516.91;6120807;23;20101;-82
2022/01/14 05:56:52;;;;;;;59.90;27.60;;;2.90;99.90;;;0.67;100.00;102506.19;6121014;23;20479;-83
2022/01/14 05:59:20;;;;;;;60.88;28.60;;;2.90;99.90;;;0.69;100.00;102501.63;6120826;23;20048;-83
2022/01/14 06:01:47;;;;;;;59.08;28.30;;;3.00;99.90;;;0.72;100.00;102501.50;6119622;23;20081;-82
2022/01/14 06:04:14;;;;;;;71.50;30.33;;;2.90;99.90;;;0.82;100.00;102509.06;6120697;23;20014;-80
2022/01/14 06:06:43;;;;;;;59.13;26.98;;;3.00;99.90;;;0.89;100.00;102505.16;6120882;23;20508;-80
2022/01/14 06:09:10;;;;;;;66.20;28.23;;;3.00;99.90;;;0.86;100.00;102513.38;6120913;23;20112;-80
2022/01/14 06:11:37;;;;;;;75.57;30.67;;;3.00;99.90;;;0.84;100.00;102508.09;6119712;23;20022;-80
2022/01/14 06:14:05;;;;;;;73.68;30.17;;;3.00;99.90;;;0.89;100.00;102511.41;6120961;23;20405;-81
2022/01/14 06:16:32;;;;;;;63.63;28.10;;;3.10;99.90;;;0.94;100.00;102509.38;6120756;23;20036;-80
2022/01/14 06:18:59;;;;;;;67.70;29.73;;;3.00;99.90;;;0.91;100.00;102503.28;6120697;23;20096;-81
2022/01/14 06:21:27;;;;;;;62.83;27.73;;;3.00;99.90;;;0.94;100.00;102506.69;6119690;23;20026;-81
2022/01/14 06:24:01;;;;;;;65.78;28.55;;;3.00;99.90;;;0.94;100.00;102511.19;6120697;23;20093;-82
2022/01/14 06:26:28;;;;;;;65.65;28.52;;;3.00;99.90;;;0.86;100.00;102510.69;6094563;23;20033;-81
2022/01/14 06:28:55;;;;;;;71.93;29.27;;;3.00;99.90;;;0.87;100.00;102509.75;6120633;23;20021;-81
2022/01/14 06:31:22;;;;;;;65.38;28.98;;;3.00;99.90;;;0.92;100.00;102507.72;6119261;23;20096;-81
2022/01/14 06:33:50;;;;;;;69.88;29.55;;;3.00;99.90;;;0.88;100.00;102511.50;6120286;23;20096;-81
2022/01/14 06:36:17;;;;;;;65.88;27.83;;;3.00;99.90;;;0.83;100.00;102511.69;6094516;23;20029;-81
2022/01/14 06:38:44;;;;;;;64.85;27.10;;;3.10;99.90;;;0.83;100.00;102502.78;6120149;23;20101;-82
2022/01/14 06:41:13;;;;;;;56.95;27.55;;;3.10;99.90;;;0.79;100.00;102510.09;6119999;23;20105;-82
2022/01/14 06:43:40;;;;;;;63.97;29.20;;;3.00;99.90;;;0.83;100.00;102508.16;6120723;23;20018;-81
2022/01/14 06:46:08;;;;;;;58.33;27.17;;;3.00;99.90;;;0.83;100.00;102518.88;6119394;23;20421;-80
2022/01/14 06:48:35;;;;;;;60.53;26.67;;;3.00;99.90;;;0.88;100.00;102511.50;6120683;23;20093;-80
2022/01/14 06:51:02;;;;;;;56.13;27.10;;;3.00;99.90;;;0.84;100.00;102504.50;6119397;23;20073;-80
2022/01/14 06:53:30;;;;;;;66.63;29.15;;;3.00;99.90;;;0.80;100.00;102494.88;6118263;23;20018;-79
2022/01/14 06:55:58;;;;;;;61.55;27.58;;;3.00;99.90;;;0.76;100.00;102497.72;6093643;23;20105;-79
2022/01/14 06:58:27;;;;;;;67.90;28.85;;;3.00;99.90;;;0.72;100.00;102496.13;6120427;23;20101;-79
2022/01/14 07:00:55;;;;;;;49.90;25.05;;;3.00;99.90;;;0.63;100.00;102493.00;6120456;23;20077;-80
2022/01/14 07:03:22;;;;;;;57.90;25.42;;;3.00;99.90;;;0.71;100.00;102490.84;6119815;23;20018;-79
2022/01/14 07:05:50;;;;;;;63.05;27.38;;;2.90;99.90;;;0.70;100.00;102481.91;6120607;23;20056;-80
2022/01/14 07:08:17;;;;;;;57.97;26.95;;;3.00;99.90;;;0.66;100.00;102491.03;6121134;23;20568;-83
2022/01/14 07:10:44;;;;;;;61.63;26.30;;;3.00;99.90;;;0.70;100.00;102481.91;6119596;23;20021;-80
2022/01/14 07:13:11;;;;;;;69.75;28.30;;;2.90;99.90;;;0.72;100.00;102492.56;6118120;23;20445;-80
2022/01/14 07:15:40;;;;;;;57.80;25.80;;;2.90;99.90;;;0.72;100.00;102480.06;6120945;23;20022;-80
2022/01/14 07:18:09;;;;;;;64.07;28.50;;;2.90;99.90;;;0.67;100.00;102471.34;6120885;23;20488;-80
2022/01/14 07:20:37;;;;;;;61.78;26.75;;;2.90;99.90;;;0.65;100.00;102473.25;6121065;23;20720;-80
2022/01/14 07:23:05;;;;;;;58.35;25.85;;;2.90;99.90;;;0.57;100.00;102475.38;6120182;23;20018;-80
2022/01/14 07:25:32;;;;;;;58.05;26.67;;;2.90;99.90;;;0.58;100.00;102480.69;6121160;23;20033;-81
2022/01/14 07:27:59;;;;;;;59.13;28.08;;;2.90;99.90;;;0.62;100.00;102459.13;6121276;23;20042;-81
2022/01/14 07:30:27;;;;;;;60.13;26.75;;;2.90;99.90;;;0.69;100.00;102466.78;6094969;23;20100;-80
2022/01/14 07:32:55;;;;;;;70.25;29.05;;;2.90;99.90;;;0.66;100.00;102466.91;6119584;23;20446;-81
2022/01/14 07:35:23;;;;;;;68.72;27.83;;;2.90;99.90;;;0.71;100.00;102467.59;6120719;23;20100;-80
2022/01/14 07:37:50;;;;;;;57.80;28.33;;;2.90;99.90;;;0.81;100.00;102464.47;6120882;23;20052;-81
2022/01/14 07:40:17;;;;;;;66.82;28.42;;;3.00;99.90;;;0.78;100.00;102457.44;6120602;23;20057;-80
2022/01/14 07:42:44;;;;;;;63.15;27.90;;;3.00;99.90;;;0.93;100.00;102461.19;6119493;23;20052;-81
2022/01/14 07:45:12;;;;;;;81.53;31.02;;;3.00;99.90;;;0.93;100.00;102456.72;6121461;23;20021;-81
2022/01/14 07:47:39;;;;;;;74.60;30.52;;;3.10;99.90;;;0.95;100.00;102453.94;6122332;23;20073;-80
2022/01/14 07:50:09;;;;;;;75.68;31.38;;;3.10;99.90;;;0.97;100.00;102470.81;6122562;23;20464;-81
2022/01/14 07:52:36;;;;;;;67.35;29.92;;;3.10;99.90;;;1.03;100.00;102481.25;6121280;23;20056;-80
2022/01/14 07:55:04;;;;;;;82.28;32.50;;;3.10;99.90;;;1.07;100.00;102482.84;6122639;23;20050;-81
2022/01/14 07:57:32;;;;;;;82.00;32.03;;;3.10;99.90;;;1.02;100.00;102486.69;6122563;23;20025;-80
2022/01/14 07:59:59;;;;;;;77.30;31.65;;;3.10;99.90;;;1.08;100.00;102484.56;6122661;23;20022;-81
2022/01/14 08:02:26;;;;;;;79.18;31.50;;;3.10;99.90;;;1.05;100.00;102482.06;6121114;23;20049;-80
2022/01/14 08:04:54;;;;;;;89.75;34.50;;;3.20;99.90;;;1.16;100.00;102489.56;6122377;23;20093;-81
2022/01/14 08:07:25;;;;;;;74.70;30.77;;;3.20;99.90;;;1.21;100.00;102492.03;6121161;23;20235;-80
2022/01/14 08:09:52;;;;;;;84.10;33.63;;;3.20;99.90;;;1.14;100.00;102486.97;6122482;23;20453;-81
2022/01/14 08:12:20;;;;;;;92.97;33.25;;;3.30;99.90;;;1.20;100.00;102492.97;6121416;23;20021;-80
2022/01/14 08:14:47;;;;;;;90.00;34.10;;;3.30;99.90;;;1.21;100.00;102481.31;6122227;23;20042;-81
2022/01/14 08:17:18;;;;;;;84.13;33.67;;;3.30;99.90;;;1.22;100.00;102491.06;6122668;23;20033;-80
2022/01/14 08:19:45;;;;;;;83.40;33.45;;;3.30;99.90;;;1.20;100.00;102493.84;6122171;23;20036;-81
2022/01/14 08:22:12;;;;;;;76.93;32.22;;;3.40;99.90;;;1.30;100.00;102496.94;6094986;23;20054;-81
2022/01/14 08:24:41;;;;;;;95.93;34.60;;;3.40;99.90;;;1.28;100.00;102497.03;6122266;23;20101;-81
2022/01/14 08:31:22;;;;;;;88.72;34.05;;;3.40;99.90;;;1.36;100.00;102499.31;6073506;23;20053;-81
2022/01/14 08:33:49;;;;;;;93.25;35.22;;;3.50;99.90;;;1.35;100.00;102505.63;6122376;23;20600;-80
2022/01/14 08:36:18;;;;;;;84.22;33.58;;;3.50;99.90;;;1.44;100.00;102509.69;6122271;23;20018;-80
2022/01/14 08:38:45;;;;;;;85.45;34.15;;;3.50;99.90;;;1.55;100.00;102510.88;6095783;23;20338;-81
2022/01/14 08:41:14;;;;;;;131.75;39.45;;;3.50;99.90;;;1.53;100.00;102496.66;6121220;23;20022;-81
2022/01/14 08:43:41;;;;;;;135.27;37.90;;;3.50;99.90;;;1.51;100.00;102506.63;6121796;23;20445;-81
2022/01/14 08:46:08;;;;;;;106.30;37.20;;;3.60;99.90;;;1.59;100.00;102500.00;6122195;23;20049;-81
2022/01/14 08:48:36;;;;;;;121.32;40.45;;;3.60;99.90;;;1.56;100.00;102518.00;6122040;23;20072;-81
2022/01/14 08:51:03;;;;;;;177.30;44.45;;;3.60;99.90;;;1.54;100.00;102516.31;6120933;23;20547;-81
2022/01/14 09:54:47;;;;;;;137.75;34.97;;;3.80;99.90;;;1.82;100.00;102574.00;6074543;23;20713;-87
2022/01/14 09:57:21;;;;;;;104.78;35.20;;;3.80;99.90;;;1.81;100.00;102583.88;6139244;23;20400;-89
2022/01/14 09:59:48;;;;;;;189.77;39.47;;;3.90;99.90;;;1.86;100.00;102581.81;6150713;23;20451;-88
2022/01/14 10:02:35;;;;;;;219.73;39.33;;;3.90;99.90;;;1.72;100.00;102587.00;6150050;23;20029;-87
2022/01/14 10:05:04;;;;;;;198.88;37.58;;;4.00;99.90;;;1.74;100.00;102587.78;6149325;23;20021;-87
2022/01/14 10:07:33;;;;;;;149.90;35.38;;;3.90;99.90;;;1.83;100.00;102586.44;6150192;23;20447;-86
2022/01/14 10:10:21;;;;;;;115.97;33.97;;;3.90;99.90;;;1.98;100.00;102582.13;6149374;23;20025;-88
2022/01/14 10:12:48;;;;;;;130.32;33.28;;;4.00;99.90;;;1.92;100.00;102576.16;6147618;23;20047;-88
2022/01/14 10:15:16;;;;;;;97.72;31.52;;;4.00;99.90;;;2.03;100.00;102569.34;6149839;23;20022;-86
2022/01/14 10:17:46;;;;;;;147.25;37.90;;;4.00;99.90;;;2.02;100.00;102575.66;6149151;23;20029;-87
2022/01/14 10:20:16;;;;;;;152.90;36.35;;;4.00;99.90;;;2.07;100.00;102562.88;6150563;23;20021;-87
2022/01/14 10:22:45;;;;;;;104.50;33.13;;;4.10;99.90;;;2.06;100.00;102555.78;6150318;23;20021;-88
2022/01/14 10:25:18;;;;;;;138.23;35.17;;;4.10;99.90;;;2.09;100.00;102560.97;6150011;23;20080;-87
2022/01/14 10:27:49;;;;;;;102.30;33.70;;;4.10;99.90;;;2.16;100.00;102548.97;6148833;23;20029;-87
2022/01/14 10:30:19;;;;;;;125.78;36.22;;;4.10;99.90;;;2.23;100.00;102541.44;6150927;23;20021;-87
2022/01/14 10:32:55;;;;;;;152.65;40.47;;;4.10;99.90;;;2.18;100.00;102549.75;6148772;23;20026;-88
2022/01/14 10:35:25;;;;;;;156.43;40.65;;;4.10;99.90;;;2.09;100.00;102537.66;6172948;23;20025;-88
2022/01/14 10:37:55;;;;;;;134.40;39.10;;;4.10;99.90;;;2.18;100.00;102539.00;6149909;23;20356;-87
2022/01/14 10:40:25;;;;;;;157.90;41.40;;;4.20;99.90;;;2.23;100.00;102542.34;6150564;23;20097;-87
2022/01/14 10:43:01;;;;;;;128.50;40.33;;;4.20;99.90;;;2.20;100.00;102537.09;6150527;23;20030;-88
2022/01/14 10:45:29;;;;;;;160.80;42.85;;;4.20;99.90;;;2.25;100.00;102539.56;6148533;23;20355;-87
2022/01/14 10:48:00;;;;;;;177.32;44.22;;;4.20;99.90;;;2.31;100.00;102537.41;6148739;23;20025;-87
2022/01/14 10:50:38;;;;;;;;;;;4.20;99.90;;;2.31;100.00;102526.66;6149272;23;20072;-86
2022/01/14 10:53:12;;;;;;;114.05;39.78;;;4.20;99.90;;;2.37;100.00;102524.63;6150472;23;19920;-81
2022/01/14 10:55:44;;;;;;;117.57;38.30;;;4.20;99.90;;;2.33;100.00;102532.81;6152974;23;20021;-85
2022/01/14 10:58:17;;;;;;;122.78;39.28;;;4.30;99.90;;;2.38;100.00;102531.72;6127507;23;20081;-84
2022/01/14 11:00:48;;;;;;;133.90;38.92;;;4.40;99.90;;;2.42;100.00;102527.91;6091826;23;20054;-84
2022/01/14 11:03:16;;;;;;;128.38;38.83;;;4.30;99.90;;;2.31;100.00;102534.72;6117185;23;20029;-84
2022/01/14 11:05:44;;;;;;;127.78;41.30;;;4.30;99.90;;;2.39;100.00;102522.72;6115047;23;20026;-83
2022/01/14 11:08:11;;;;;;;132.80;39.95;;;4.30;99.90;;;2.32;100.00;102523.06;6120150;23;20460;-84
2022/01/14 11:10:40;;;;;;;139.63;39.67;;;4.30;99.90;;;2.32;100.00;102527.53;6120603;23;20352;-83
2022/01/14 11:13:11;;;;;;;101.57;36.65;;;4.30;99.90;;;2.38;100.00;102515.59;6120713;23;20097;-83
2022/01/14 11:15:38;;;;;;;129.87;39.27;;;4.40;99.90;;;2.48;100.00;102514.16;6120398;23;20045;-83
2022/01/14 11:18:07;;;;;;;108.43;36.47;;;4.40;99.90;;;2.39;100.00;102503.91;6120610;23;20097;-84
2022/01/14 11:23:14;;;;;;;107.45;36.88;;;4.40;99.90;;;2.54;100.00;102505.75;6121749;23;20455;-84
2022/01/14 11:23:24;;;;;;;113.88;36.38;;;4.40;99.90;;;2.56;100.00;102503.84;6122159;23;20022;-84
2022/01/14 11:26:01;;;;;;;101.38;32.83;;;4.40;99.90;;;2.56;100.00;102501.16;6122270;23;20064;-84
2022/01/14 11:28:31;;;;;;;112.05;35.72;;;4.50;99.90;;;2.50;100.00;102509.56;6122171;23;20025;-83
2022/01/14 11:30:59;;;;;;;109.65;33.17;;;4.50;99.90;;;2.52;100.00;102510.34;6096797;23;20460;-83
2022/01/14 11:33:41;;;;;;;103.95;33.78;;;4.50;99.90;;;2.61;100.00;102504.50;6122565;23;20412;-84
2022/01/14 11:36:10;;;;;;;140.98;38.75;;;4.50;99.90;;;2.63;100.00;102507.97;6122279;23;20127;-84
2022/01/14 11:38:43;;;;;;;119.88;33.28;;;4.50;99.90;;;2.55;100.00;102512.84;6122609;23;20045;-83
2022/01/14 11:41:16;;;;;;;95.97;30.70;;;4.60;99.90;;;2.56;100.00;102500.31;6096647;23;20026;-84
2022/01/14 11:43:49;;;;;;;99.93;31.20;;;4.60;99.90;;;2.60;100.00;102505.41;6122599;23;20022;-84
2022/01/14 11:46:47;;;;;;;89.28;30.60;;;4.60;99.90;;;2.61;100.00;102512.56;6122012;23;20442;-84
2022/01/14 11:49:38;;;;;;;94.60;31.45;;;4.60;99.90;;;2.62;100.00;102510.72;6122521;23;20032;-84
2022/01/14 11:52:08;;;;;;;102.57;32.03;;;4.70;99.90;;;2.61;100.00;102508.97;6115361;23;20021;-83
2022/01/14 11:54:45;;;;;;;84.25;30.45;;;4.70;99.90;;;2.63;100.00;102507.09;6122035;23;20021;-84
2022/01/14 11:57:38;;;;;;;92.30;31.27;;;4.70;99.90;;;2.64;100.00;102501.63;6122285;23;20017;-84
2022/01/14 12:00:37;;;;;;;94.88;30.25;;;4.70;99.90;;;2.62;100.00;102499.97;6096001;23;20061;-84
2022/01/14 12:03:30;;;;;;;78.68;27.58;;;4.70;99.90;;;2.73;100.00;102503.81;6121523;23;20014;-84
2022/01/14 12:06:00;;;;;;;83.20;28.55;;;4.80;99.90;;;2.85;100.00;102512.16;6121826;23;20022;-84
2022/01/14 12:08:30;;;;;;;71.85;28.42;;;4.70;99.90;;;2.92;100.00;102509.03;6120623;23;20026;-83
2022/01/14 12:11:24;;;;;;;104.88;29.88;;;4.70;99.90;;;2.97;100.00;102508.78;6122284;23;20025;-84
2022/01/14 12:13:58;;;;;;;90.28;30.02;;;4.80;99.90;;;2.95;100.00;102502.59;6113363;23;20026;-84
2022/01/14 12:16:45;;;;;;;92.78;29.95;;;4.80;99.90;;;3.00;100.00;102511.28;6122240;23;20018;-84
2022/01/14 12:19:22;;;;;;;91.45;30.50;;;4.80;99.90;;;3.02;100.00;102512.06;6122356;23;20154;-83
2022/01/14 12:22:10;;;;;;;89.72;30.08;;;4.80;99.90;;;2.98;100.00;102506.97;6121821;23;20022;-84
2022/01/14 12:24:49;;;;;;;93.78;29.42;;;4.90;99.90;;;3.04;100.00;102501.22;6120913;23;20018;-83
2022/01/14 12:27:47;;;;;;;91.00;30.05;;;4.90;99.90;;;2.94;100.00;102500.88;6120839;23;20022;-84
2022/01/14 12:30:25;;;;;;;89.10;29.10;;;4.90;99.90;;;2.95;100.00;102497.22;6120081;23;20329;-84
2022/01/14 12:32:57;;;;;;;88.97;29.77;;;5.00;99.90;;;3.04;100.00;102501.22;6119977;23;20294;-84
2022/01/14 12:35:35;;;;;;;86.28;30.92;;;4.90;99.90;;;3.07;100.00;102490.31;6121223;23;20049;-83
2022/01/14 12:38:04;;;;;;;90.78;31.33;;;4.90;99.90;;;3.05;100.00;102498.44;6122034;23;20456;-84
2022/01/14 12:40:40;;;;;;;97.47;32.00;;;5.00;99.90;;;3.08;100.00;102498.25;6121278;23;20081;-84
2022/01/14 12:43:12;;;;;;;86.53;29.75;;;5.00;99.90;;;3.07;100.00;102490.31;6095669;23;20053;-83
2022/01/14 12:46:00;;;;;;;83.15;30.15;;;5.00;99.90;;;3.12;100.00;102482.81;6121052;23;20021;-84
2022/01/14 12:48:46;;;;;;;78.13;27.83;;;5.00;99.90;;;3.13;100.00;102480.03;6121179;23;20080;-84
2022/01/14 12:51:18;;;;;;;82.05;28.85;;;5.00;99.90;;;3.21;100.00;102481.44;6095928;23;20116;-84
2022/01/14 12:53:55;;;;;;;78.85;27.65;;;5.00;99.90;;;3.18;100.00;102476.22;6121728;23;20025;-84
2022/01/14 12:56:25;;;;;;;80.85;26.85;;;5.00;99.90;;;3.27;100.00;102473.00;6121341;23;20026;-84
2022/01/14 12:59:04;;;;;;;75.30;28.63;;;5.00;99.90;;;3.21;100.00;102481.44;6121929;23;20018;-83
2022/01/14 13:01:35;;;;;;;82.15;27.77;;;5.00;99.90;;;3.24;100.00;102476.75;6095618;23;20116;-83
2022/01/14 13:04:05;;;;;;;;;;;5.00;99.90;;;3.23;100.00;102474.16;6122003;23;20468;-83
2022/01/14 13:06:47;;;;;;;74.43;25.42;;;5.10;99.90;;;3.25;100.00;102472.22;6094319;23;19928;-84
2022/01/14 13:09:19;;;;;;;76.18;27.13;;;5.10;99.90;;;3.23;100.00;102468.75;6121630;23;20022;-84
2022/01/14 13:11:49;;;;;;;73.28;27.02;;;5.10;99.90;;;3.24;100.00;102465.13;6121190;23;20026;-83
2022/01/14 13:14:31;;;;;;;84.87;28.47;;;5.10;99.90;;;3.22;100.00;102456.25;6120857;23;20073;-84
2022/01/14 13:17:02;;;;;;;69.13;27.35;;;5.10;99.90;;;3.29;100.00;102465.72;6121650;23;20253;-84
2022/01/14 13:19:31;;;;;;;83.03;28.05;;;5.10;99.90;;;3.31;100.00;102462.00;6121443;23;20021;-83
2022/01/14 13:22:02;;;;;;;76.90;27.92;;;5.10;99.90;;;3.35;100.00;102461.78;6121690;23;20017;-83
2022/01/14 13:24:32;;;;;;;68.38;25.73;;;5.10;99.90;;;3.36;100.00;102458.16;6119751;23;20085;-83
2022/01/14 13:27:08;;;;;;;66.30;25.55;;;5.10;99.90;;;3.39;100.00;102463.34;6121125;23;20018;-83
2022/01/14 13:29:40;;;;;;;75.00;26.75;;;5.20;99.90;;;3.38;100.00;102462.47;6121519;23;20025;-83
2022/01/14 13:32:08;;;;;;;;;;;5.20;99.90;;;3.39;100.00;102463.34;6121793;23;20026;-83
2022/01/14 13:34:36;;;;;;;76.28;27.80;;;5.20;99.90;;;3.41;100.00;102462.31;6121278;23;19916;-83
2022/01/14 13:37:05;;;;;;;78.30;27.38;;;5.20;99.90;;;3.37;100.00;102459.88;6121096;23;20018;-83
2022/01/14 13:39:33;;;;;;;74.15;27.48;;;5.20;99.90;;;3.37;100.00;102449.13;6094995;23;20364;-83
2022/01/14 13:42:00;;;;;;;75.50;27.85;;;5.20;99.90;;;3.35;100.00;102443.84;6120916;23;20068;-83
2022/01/14 13:44:34;;;;;;;70.72;28.85;;;5.30;99.90;;;3.43;100.00;102432.63;6120871;23;20022;-83
2022/01/14 13:47:07;;;;;;;78.70;29.27;;;5.30;99.90;;;3.46;100.00;102446.75;6121479;23;20404;-85
2022/01/14 13:49:34;;;;;;;78.15;29.33;;;5.30;99.90;;;3.52;100.00;102454.47;6121438;23;20451;-84
2022/01/14 13:52:10;;;;;;;89.43;32.55;;;5.30;99.90;;;3.53;100.00;102447.25;6121086;23;20101;-85
2022/01/14 13:54:38;;;;;;;80.55;30.38;;;5.30;99.90;;;3.57;100.00;102451.50;6121276;23;20022;-84
2022/01/14 13:57:11;;;;;;;76.03;29.30;;;5.30;99.90;;;3.60;100.00;102445.06;6120822;23;20089;-83
2022/01/14 13:59:39;;;;;;;81.32;28.48;;;5.40;99.90;;;3.61;100.00;102442.28;6121021;23;20073;-83
2022/01/14 14:02:09;;;;;;;77.43;28.83;;;5.30;99.90;;;3.64;100.00;102444.78;6094619;23;20412;-83
2022/01/14 14:04:45;;;;;;;75.18;28.08;;;5.30;99.90;;;3.67;100.00;102444.59;6120712;23;20014;-83
2022/01/14 14:07:16;;;;;;;76.07;27.73;;;5.30;99.90;;;3.72;100.00;102442.50;6120893;23;20100;-83
2022/01/14 14:09:48;;;;;;;;;;;5.40;99.90;;;3.63;100.00;102439.50;6095509;23;20033;-83